Time;durP1;ratioP1;P1;durP2;ratioP2;P2;SDS_P1;SDS_P2;PMS_P1;PMS_P2;Temp;Humidity;BMP_temperature;BMP_pressure;BME280_temperature;BME280_humidity;BME280_pressure;Samples;Min_cycle;Max_cycle;Signal;HPM_P1;HPM_P2
2022/07/24 03:00:42;;;;;;;6.00;4.40;;;28.30;41.40;;;;;;5762806;23;45873;-68
2022/07/24 03:03:08;;;;;;;5.72;5.13;;;28.30;41.40;;;;;;4894514;28;46129;-62
2022/07/24 03:05:34;;;;;;;6.38;4.82;;;28.30;41.40;;;;;;4891272;28;45524;-64
2022/07/24 03:08:01;;;;;;;5.53;4.50;;;28.30;41.50;;;;;;4883947;28;45337;-65
2022/07/24 03:10:27;;;;;;;5.70;4.10;;;28.30;41.50;;;;;;4895024;28;45285;-66
2022/07/24 03:12:53;;;;;;;5.25;4.35;;;28.30;41.50;;;;;;4903235;28;45432;-66
2022/07/24 03:15:20;;;;;;;4.90;4.40;;;28.20;41.40;;;;;;4906332;28;44681;-66
2022/07/24 03:17:53;;;;;;;6.43;4.40;;;28.30;41.50;;;;;;4903534;28;45099;-64
2022/07/24 03:20:20;;;;;;;6.28;4.63;;;28.20;41.50;;;;;;4883664;28;45390;-64
2022/07/24 03:22:46;;;;;;;4.75;4.13;;;28.20;41.50;;;;;;4906954;28;46009;-64
2022/07/24 03:25:13;;;;;;;4.95;4.43;;;28.20;41.50;;;;;;4902863;28;45222;-62
2022/07/24 03:27:39;;;;;;;7.32;4.25;;;28.20;41.60;;;;;;4900688;28;45246;-63
2022/07/24 03:30:06;;;;;;;5.05;4.55;;;28.20;41.60;;;;;;4900544;28;45143;-66
2022/07/24 03:32:33;;;;;;;5.18;4.60;;;28.10;41.50;;;;;;4883486;29;46193;-64
2022/07/24 03:34:59;;;;;;;6.38;4.32;;;28.20;41.60;;;;;;4901566;28;45384;-64
2022/07/24 03:37:25;;;;;;;5.53;5.03;;;28.20;41.60;;;;;;4896145;28;45460;-67
2022/07/24 03:39:52;;;;;;;5.88;5.07;;;28.20;41.60;;;;;;4897742;28;46063;-61
2022/07/24 03:42:18;;;;;;;4.75;4.13;;;28.20;41.60;;;;;;4904292;28;46982;-63
2022/07/24 03:44:44;;;;;;;4.82;4.30;;;28.10;41.60;;;;;;4901196;28;45347;-64
2022/07/24 03:47:10;;;;;;;5.22;4.20;;;28.10;41.60;;;;;;4899740;28;44820;-65
2022/07/24 03:49:37;;;;;;;4.68;4.25;;;28.10;41.70;;;;;;4903399;28;45391;-60
2022/07/24 03:52:03;;;;;;;6.13;4.90;;;28.10;41.70;;;;;;4883590;28;45992;-66
2022/07/24 03:54:30;;;;;;;5.10;4.43;;;28.10;41.70;;;;;;4898391;28;44682;-64
2022/07/24 03:56:57;;;;;;;5.88;4.97;;;28.10;41.70;;;;;;4891899;28;45730;-64
2022/07/24 03:59:23;;;;;;;5.30;4.80;;;28.10;41.70;;;;;;4863253;28;45811;-67
2022/07/24 04:01:50;;;;;;;6.35;4.97;;;28.10;41.70;;;;;;4891296;28;46100;-68
2022/07/24 04:04:16;;;;;;;6.47;4.95;;;28.10;41.70;;;;;;4893809;28;45600;-65
2022/07/24 04:06:42;;;;;;;4.40;4.00;;;28.10;41.70;;;;;;4896383;28;45189;-63
2022/07/24 04:09:09;;;;;;;6.53;4.80;;;28.10;41.80;;;;;;4861425;29;45354;-66
2022/07/24 04:11:35;;;;;;;6.07;5.22;;;28.00;41.80;;;;;;4894379;28;46052;-63
2022/07/24 04:14:02;;;;;;;5.38;4.90;;;28.00;41.90;;;;;;4877333;29;44796;-66
2022/07/24 04:16:28;;;;;;;5.93;4.88;;;28.00;41.90;;;;;;4894702;28;45215;-64
2022/07/24 04:18:54;;;;;;;5.28;4.78;;;28.00;41.90;;;;;;4894153;28;45115;-64
2022/07/24 04:21:20;;;;;;;4.60;4.15;;;28.00;41.90;;;;;;4874359;28;46639;-67
2022/07/24 04:23:46;;;;;;;5.97;4.60;;;27.90;41.90;;;;;;4894690;28;45324;-68
2022/07/24 04:26:13;;;;;;;6.63;5.32;;;27.90;42.60;;;;;;4894298;28;45549;-64
2022/07/24 04:28:39;;;;;;;5.57;5.00;;;28.00;42.00;;;;;;4894415;28;45530;-67
2022/07/24 04:31:05;;;;;;;5.05;4.30;;;28.00;41.90;;;;;;4893189;28;45004;-67
2022/07/24 04:33:31;;;;;;;6.70;4.88;;;28.00;42.00;;;;;;4893792;28;45511;-70
2022/07/24 04:35:58;;;;;;;5.28;4.78;;;28.00;42.40;;;;;;4893448;28;45641;-65
2022/07/24 04:38:24;;;;;;;5.10;4.60;;;28.00;42.00;;;;;;4895401;28;45225;-65
2022/07/24 04:40:50;;;;;;;5.05;4.28;;;27.90;42.00;;;;;;4892103;28;46168;-67
2022/07/24 04:43:17;;;;;;;5.07;4.57;;;27.90;42.20;;;;;;4890844;28;44748;-68
2022/07/24 04:45:44;;;;;;;4.95;4.10;;;27.90;42.20;;;;;;4894214;28;45324;-64
2022/07/24 04:48:10;;;;;;;5.75;5.18;;;27.90;42.40;;;;;;4880891;28;45612;-68
2022/07/24 04:50:36;;;;;;;5.10;4.60;;;27.80;42.40;;;;;;4878744;29;46793;-70
2022/07/24 04:53:03;;;;;;;7.10;4.88;;;27.80;42.50;;;;;;4896519;28;45349;-66
2022/07/24 04:55:29;;;;;;;5.47;4.78;;;27.80;42.50;;;;;;4897062;28;45519;-64
2022/07/24 04:57:55;;;;;;;5.93;4.53;;;27.80;42.50;;;;;;4895625;28;45236;-64
2022/07/24 05:00:21;;;;;;;5.07;4.57;;;27.80;42.60;;;;;;4894680;28;47073;-64
2022/07/24 05:02:48;;;;;;;4.70;4.30;;;27.80;42.70;;;;;;4863479;29;45655;-63
2022/07/24 05:05:14;;;;;;;5.57;5.10;;;27.80;43.30;;;;;;4879174;29;45497;-67
2022/07/24 05:07:41;;;;;;;8.10;4.28;;;27.80;42.80;;;;;;4861511;29;45551;-65
2022/07/24 05:10:07;;;;;;;6.07;4.30;;;27.80;42.90;;;;;;4885575;29;46010;-66
2022/07/24 05:12:34;;;;;;;5.45;4.55;;;27.80;43.00;;;;;;4866345;29;45569;-63
2022/07/24 05:15:00;;;;;;;5.07;4.57;;;27.80;43.00;;;;;;4870983;29;45903;-66
2022/07/24 05:17:26;;;;;;;4.50;4.10;;;27.80;43.10;;;;;;4883983;29;45390;-64
2022/07/24 05:19:52;;;;;;;4.85;4.45;;;27.80;43.00;;;;;;4864546;29;45443;-68
2022/07/24 05:22:19;;;;;;;5.32;4.82;;;27.80;43.10;;;;;;4863612;29;45178;-68
2022/07/24 05:24:45;;;;;;;8.88;5.40;;;27.80;43.20;;;;;;4882434;29;45311;-69
2022/07/24 05:27:11;;;;;;;6.63;5.45;;;27.80;43.30;;;;;;4875964;29;45402;-67
2022/07/24 05:29:37;;;;;;;5.75;5.18;;;27.80;43.20;;;;;;4880527;29;45959;-66
2022/07/24 05:32:04;;;;;;;5.82;5.20;;;27.80;43.20;;;;;;4881332;29;45446;-66
2022/07/24 05:34:31;;;;;;;6.60;4.85;;;27.80;43.30;;;;;;4865952;29;45813;-68
2022/07/24 05:36:57;;;;;;;5.65;5.15;;;27.80;43.30;;;;;;4881981;29;45493;-66
2022/07/24 05:39:24;;;;;;;6.53;4.97;;;27.80;43.50;;;;;;4882777;29;46828;-69
2022/07/24 05:41:50;;;;;;;6.18;5.47;;;27.70;43.50;;;;;;4858818;29;45762;-66
2022/07/24 05:44:16;;;;;;;4.95;4.45;;;27.70;43.50;;;;;;4879668;29;44645;-65
2022/07/24 05:46:42;;;;;;;4.70;4.30;;;27.80;43.50;;;;;;4878866;29;45365;-64
2022/07/24 05:49:08;;;;;;;8.75;4.80;;;27.80;43.50;;;;;;4877375;29;46253;-65
2022/07/24 05:51:34;;;;;;;5.95;4.78;;;27.80;43.50;;;;;;4883078;29;45039;-67
2022/07/24 05:54:02;;;;;;;6.13;5.50;;;27.80;43.40;;;;;;4881696;29;44727;-67
2022/07/24 05:56:29;;;;;;;5.63;4.93;;;27.90;43.40;;;;;;4861822;29;45252;-69
2022/07/24 05:58:55;;;;;;;5.70;5.18;;;27.90;43.40;;;;;;4880718;29;45729;-65
2022/07/24 06:01:22;;;;;;;5.80;5.25;;;27.90;43.40;;;;;;4886573;29;46007;-67
2022/07/24 06:03:47;;;;;;;5.40;4.90;;;28.00;43.40;;;;;;4897149;28;45264;-63
2022/07/24 06:06:14;;;;;;;6.57;5.82;;;28.00;43.40;;;;;;4898687;28;45323;-66
2022/07/24 06:08:40;;;;;;;6.20;5.20;;;28.00;43.40;;;;;;4882578;29;48193;-70
2022/07/24 06:11:06;;;;;;;5.05;4.43;;;28.00;43.40;;;;;;4895006;28;45177;-65
2022/07/24 06:13:32;;;;;;;5.57;5.05;;;28.10;43.50;;;;;;4896848;28;45148;-65
2022/07/24 06:15:59;;;;;;;6.00;5.30;;;28.00;43.50;;;;;;4882189;28;45596;-68
2022/07/24 06:18:25;;;;;;;10.25;5.93;;;28.10;43.60;;;;;;4879457;29;47410;-74
2022/07/24 06:20:51;;;;;;;6.15;5.55;;;28.10;43.70;;;;;;4864554;28;45378;-69
2022/07/24 06:23:17;;;;;;;6.72;5.70;;;28.10;43.70;;;;;;4861880;29;45516;-68
2022/07/24 06:25:44;;;;;;;9.07;5.85;;;28.10;43.80;;;;;;4897916;28;45261;-65
2022/07/24 06:28:10;;;;;;;5.55;5.05;;;28.00;43.80;;;;;;4881210;29;45534;-71
2022/07/24 06:30:36;;;;;;;6.10;5.50;;;28.00;43.90;;;;;;4894672;28;45799;-65
2022/07/24 06:33:03;;;;;;;6.05;5.45;;;28.00;43.90;;;;;;4881908;28;44985;-70
2022/07/24 06:35:32;;;;;;;6.75;5.45;;;28.10;43.90;;;;;;4880504;29;45417;-65
2022/07/24 06:38:00;;;;;;;6.65;5.35;;;28.10;43.90;;;;;;4863421;29;45306;-66
2022/07/24 06:40:26;;;;;;;5.93;5.28;;;28.20;44.00;;;;;;4879512;28;45414;-66
2022/07/24 06:42:53;;;;;;;5.35;4.82;;;28.20;43.90;;;;;;4896354;28;45498;-66
2022/07/24 06:45:19;;;;;;;6.40;5.28;;;28.20;43.90;;;;;;4895861;28;45149;-62
2022/07/24 06:47:45;;;;;;;5.38;4.88;;;28.20;43.90;;;;;;4901639;28;45302;-61
2022/07/24 06:50:12;;;;;;;9.50;6.15;;;28.30;43.90;;;;;;4881789;28;45260;-65
2022/07/24 06:52:39;;;;;;;6.00;5.45;;;28.30;43.80;;;;;;4895790;28;44641;-62
2022/07/24 06:55:06;;;;;;;4.97;4.20;;;28.30;43.70;;;;;;4890543;28;45130;-65
2022/07/24 06:57:33;;;;;;;6.15;4.82;;;28.40;43.80;;;;;;4896518;28;45886;-68
2022/07/24 06:59:59;;;;;;;8.35;5.65;;;28.40;43.80;;;;;;4897591;28;46478;-65
2022/07/24 07:02:25;;;;;;;4.75;4.32;;;28.40;43.80;;;;;;4898590;28;45306;-71
2022/07/24 07:04:51;;;;;;;6.60;5.57;;;28.50;43.80;;;;;;4896411;28;44845;-64
2022/07/24 07:07:18;;;;;;;6.00;5.40;;;28.50;43.60;;;;;;4899954;28;46614;-65
2022/07/24 07:09:44;;;;;;;5.70;5.20;;;28.60;43.70;;;;;;4886392;28;44739;-66
2022/07/24 07:12:10;;;;;;;6.30;5.55;;;28.60;43.60;;;;;;4884846;28;45379;-65
2022/07/24 07:14:37;;;;;;;5.93;5.32;;;28.60;43.70;;;;;;4898907;28;45461;-67
2022/07/24 07:17:03;;;;;;;5.85;5.30;;;28.60;43.80;;;;;;4901808;28;46293;-65
2022/07/24 07:19:29;;;;;;;6.43;5.82;;;28.60;43.80;;;;;;4903207;28;45306;-67
2022/07/24 07:21:58;;;;;;;6.22;5.28;;;28.70;43.80;;;;;;4900739;28;45180;-65
2022/07/24 07:24:24;;;;;;;6.93;5.60;;;28.70;43.70;;;;;;4901171;28;45297;-60
2022/07/24 07:26:50;;;;;;;5.20;4.75;;;28.70;43.60;;;;;;4898235;28;46391;-63
2022/07/24 07:29:16;;;;;;;8.05;5.40;;;28.70;43.70;;;;;;4899955;28;44894;-66
2022/07/24 07:31:42;;;;;;;5.65;5.15;;;28.80;43.70;;;;;;4881555;29;45437;-62
2022/07/24 07:34:09;;;;;;;5.07;4.57;;;28.80;43.70;;;;;;4898671;28;45814;-64
2022/07/24 07:36:35;;;;;;;7.90;5.72;;;28.90;43.90;;;;;;4883951;29;46910;-66
2022/07/24 07:39:01;;;;;;;6.20;5.60;;;28.80;43.80;;;;;;4899152;28;45198;-64
2022/07/24 07:41:28;;;;;;;5.47;4.97;;;28.80;43.70;;;;;;4899783;28;46701;-64
2022/07/24 07:43:54;;;;;;;6.57;5.97;;;28.90;43.70;;;;;;4898560;28;45422;-64
2022/07/24 07:46:20;;;;;;;6.50;5.53;;;28.90;43.60;;;;;;4902639;28;46042;-65
2022/07/24 07:48:46;;;;;;;6.60;5.53;;;28.90;43.60;;;;;;4902452;28;44661;-63
2022/07/24 07:51:14;;;;;;;5.82;5.22;;;29.00;43.50;;;;;;4903831;28;45435;-62
2022/07/24 07:53:40;;;;;;;5.70;5.20;;;29.00;43.50;;;;;;4900535;28;45361;-66
2022/07/24 07:56:06;;;;;;;6.55;6.00;;;29.00;43.40;;;;;;4901182;28;46161;-63
2022/07/24 07:58:33;;;;;;;6.57;5.55;;;29.00;43.30;;;;;;4900236;28;45797;-66
2022/07/24 08:00:59;;;;;;;6.53;5.82;;;29.10;43.20;;;;;;4900405;28;44986;-63
2022/07/24 08:03:25;;;;;;;6.38;5.55;;;29.10;43.30;;;;;;4901481;28;45421;-69
2022/07/24 08:05:52;;;;;;;6.93;5.57;;;29.10;43.20;;;;;;4887917;28;45874;-62
2022/07/24 08:08:18;;;;;;;7.53;5.60;;;29.20;43.30;;;;;;4902276;28;45273;-65
2022/07/24 08:10:44;;;;;;;7.80;5.95;;;29.20;43.30;;;;;;4889861;28;45211;-64
2022/07/24 08:13:12;;;;;;;6.32;5.70;;;29.20;43.20;;;;;;4899948;28;45420;-64
2022/07/24 08:15:38;;;;;;;5.80;5.28;;;29.20;43.10;;;;;;4901925;28;46206;-63
2022/07/24 08:18:04;;;;;;;6.88;6.25;;;29.30;43.10;;;;;;4887881;29;45240;-64
2022/07/24 08:20:29;;;;;;;5.93;5.43;;;29.30;43.00;;;;;;4907195;28;45219;-60
2022/07/24 08:22:55;;;;;;;6.60;5.95;;;29.30;43.00;;;;;;4908208;28;45536;-65
2022/07/24 08:25:21;;;;;;;6.78;6.07;;;29.30;42.90;;;;;;4906133;28;46148;-65
2022/07/24 08:27:46;;;;;;;6.53;5.93;;;29.30;42.90;;;;;;4908492;28;45933;-64
2022/07/24 08:30:12;;;;;;;7.32;6.10;;;29.40;42.80;;;;;;4904986;28;45138;-67
2022/07/24 08:32:38;;;;;;;6.45;5.85;;;29.40;42.80;;;;;;4890510;28;45133;-62
2022/07/24 08:35:04;;;;;;;6.18;5.57;;;29.40;42.70;;;;;;4904129;28;45964;-62
2022/07/24 08:37:30;;;;;;;6.00;5.50;;;29.50;42.80;;;;;;4887134;28;45523;-63
2022/07/24 08:39:55;;;;;;;6.22;5.63;;;29.50;43.00;;;;;;4902058;29;45188;-64
2022/07/24 08:42:21;;;;;;;6.07;5.47;;;29.50;42.70;;;;;;4901236;28;45544;-66
2022/07/24 08:44:47;;;;;;;5.90;5.30;;;29.50;42.60;;;;;;4902900;29;44849;-65
2022/07/24 08:47:13;;;;;;;6.78;6.07;;;29.50;42.60;;;;;;4872368;29;45138;-61
2022/07/24 08:49:38;;;;;;;6.13;5.63;;;29.60;42.60;;;;;;4855114;28;44912;-65
2022/07/24 08:52:08;;;;;;;6.60;6.00;;;29.60;42.50;;;;;;4871786;29;45263;-62
2022/07/24 08:54:34;;;;;;;6.75;6.05;;;29.60;42.50;;;;;;4887735;29;46226;-64
2022/07/24 08:57:00;;;;;;;6.15;5.57;;;29.60;42.50;;;;;;4902323;28;44692;-62
2022/07/24 08:59:26;;;;;;;5.97;5.47;;;29.60;42.40;;;;;;4902136;28;45251;-68
2022/07/24 09:01:51;;;;;;;6.07;5.53;;;29.70;42.40;;;;;;4889348;29;44884;-64
2022/07/24 09:04:38;;;;;;;6.43;5.85;;;29.70;42.40;;;;;;4902508;28;45360;-63
2022/07/24 09:07:07;;;;;;;6.25;5.65;;;29.70;42.30;;;;;;4900816;28;44962;-63
2022/07/24 09:09:33;;;;;;;6.80;6.20;;;29.80;42.30;;;;;;4884251;29;45870;-68
2022/07/24 09:12:09;;;;;;;6.30;5.72;;;29.80;42.30;;;;;;4902053;29;45285;-66
2022/07/24 09:14:36;;;;;;;6.03;5.53;;;29.80;42.20;;;;;;4904325;28;47171;-72
2022/07/24 09:17:08;;;;;;;6.10;5.60;;;29.80;42.20;;;;;;4876123;29;45513;-68
2022/07/24 09:19:51;;;;;;;5.78;5.15;;;29.90;42.20;;;;;;4898955;28;44873;-67
2022/07/24 09:22:35;;;;;;;8.38;6.25;;;29.90;42.10;;;;;;4897468;29;45761;-65
2022/07/24 09:25:10;;;;;;;5.90;5.40;;;29.90;42.10;;;;;;4899293;29;46192;-69
2022/07/24 09:27:39;;;;;;;5.57;5.07;;;29.90;42.00;;;;;;4897702;28;45666;-66
2022/07/24 09:30:06;;;;;;;6.45;5.78;;;29.90;42.00;;;;;;4899845;29;45397;-64
2022/07/24 09:32:31;;;;;;;6.18;5.57;;;29.90;42.00;;;;;;4900848;28;45436;-66
2022/07/24 09:34:57;;;;;;;5.60;5.18;;;30.00;42.00;;;;;;4882467;28;45924;-63
2022/07/24 09:37:23;;;;;;;6.25;5.65;;;30.00;42.00;;;;;;4901500;28;45405;-67
2022/07/24 09:39:49;;;;;;;5.50;5.07;;;30.00;42.00;;;;;;4862679;28;45576;-66
2022/07/24 09:42:14;;;;;;;5.57;5.18;;;30.00;42.00;;;;;;4884652;29;45203;-62
2022/07/24 09:44:40;;;;;;;6.35;5.85;;;30.10;42.00;;;;;;4884032;29;45054;-63
2022/07/24 09:47:10;;;;;;;6.00;5.40;;;30.00;41.80;;;;;;4899525;28;44688;-64
2022/07/24 09:49:36;;;;;;;6.38;5.78;;;30.10;41.80;;;;;;4897968;28;45063;-66
2022/07/24 09:52:05;;;;;;;6.05;5.55;;;30.10;41.80;;;;;;4894117;28;45359;-65
2022/07/24 09:54:35;;;;;;;6.07;5.47;;;30.10;41.70;;;;;;4902391;28;46256;-61
2022/07/24 09:57:19;;;;;;;6.47;5.90;;;30.20;41.80;;;;;;4900931;28;45266;-65
2022/07/24 09:59:47;;;;;;;7.15;5.53;;;30.20;41.60;;;;;;4899635;28;45218;-63
2022/07/24 10:02:16;;;;;;;5.60;5.10;;;30.20;41.60;;;;;;4897565;28;45393;-62
2022/07/24 10:04:42;;;;;;;5.60;5.10;;;30.30;41.70;;;;;;4897814;28;46101;-66
2022/07/24 10:07:13;;;;;;;6.35;5.75;;;30.30;41.60;;;;;;4900505;28;44559;-62
2022/07/24 10:09:41;;;;;;;6.05;5.18;;;30.30;41.60;;;;;;4899174;28;45624;-67
2022/07/24 10:12:15;;;;;;;6.40;5.80;;;30.30;41.60;;;;;;4899123;29;45280;-67
2022/07/24 10:14:41;;;;;;;6.13;5.53;;;30.30;41.50;;;;;;4880576;29;46112;-73
2022/07/24 10:17:08;;;;;;;6.05;5.53;;;30.30;41.50;;;;;;4883337;29;45634;-64
2022/07/24 10:19:49;;;;;;;7.38;5.70;;;30.40;41.50;;;;;;4897970;28;46109;-64
2022/07/24 10:22:19;;;;;;;6.18;5.63;;;30.40;41.30;;;;;;4881662;29;45253;-65
2022/07/24 10:25:07;;;;;;;5.80;5.30;;;30.40;41.40;;;;;;4881978;29;46127;-67
2022/07/24 10:27:37;;;;;;;5.85;5.35;;;30.40;41.30;;;;;;4899567;28;45190;-63
2022/07/24 10:30:11;;;;;;;6.30;5.70;;;30.40;41.40;;;;;;4898634;28;45175;-65
2022/07/24 10:32:37;;;;;;;6.07;5.55;;;30.50;41.30;;;;;;4865710;28;45386;-63
2022/07/24 10:35:14;;;;;;;7.00;5.60;;;30.40;41.30;;;;;;4882993;28;46039;-65
2022/07/24 10:37:48;;;;;;;5.97;5.45;;;30.40;41.20;;;;;;4898338;28;45206;-63
2022/07/24 10:40:41;;;;;;;6.40;5.80;;;30.50;41.20;;;;;;4895471;28;45338;-66
2022/07/24 10:43:10;;;;;;;5.78;5.32;;;30.50;41.20;;;;;;4897067;28;45464;-63
2022/07/24 10:46:00;;;;;;;6.28;5.78;;;30.50;41.30;;;;;;4897283;28;45479;-66
2022/07/24 10:48:31;;;;;;;5.90;5.40;;;30.50;41.30;;;;;;4886119;28;45178;-67
2022/07/24 10:51:15;;;;;;;6.07;5.50;;;30.50;41.90;;;;;;4896491;28;45142;-63
2022/07/24 10:53:44;;;;;;;5.60;5.13;;;30.50;41.20;;;;;;4883699;28;45253;-62
2022/07/24 10:56:29;;;;;;;6.30;5.80;;;30.50;41.20;;;;;;4898533;29;47406;-66
2022/07/24 10:59:00;;;;;;;5.57;5.15;;;30.50;41.10;;;;;;4897906;28;44655;-65
2022/07/24 11:01:50;;;;;;;6.20;5.70;;;30.50;41.20;;;;;;4896746;28;45675;-66
2022/07/24 11:04:19;;;;;;;6.53;5.93;;;30.60;41.10;;;;;;4880802;29;45375;-65
2022/07/24 11:06:51;;;;;;;5.72;5.25;;;30.60;41.20;;;;;;4897238;28;46129;-68
2022/07/24 11:09:18;;;;;;;6.65;5.95;;;30.60;41.20;;;;;;4883126;29;45193;-63
2022/07/24 11:11:56;;;;;;;6.60;5.65;;;30.60;41.20;;;;;;4897092;28;44940;-62
2022/07/24 11:14:37;;;;;;;6.10;5.35;;;30.60;41.10;;;;;;4880696;29;44876;-63
2022/07/24 11:17:40;;;;;;;6.00;5.50;;;30.60;41.10;;;;;;4897418;28;46605;-61
2022/07/24 11:20:12;;;;;;;4.97;4.57;;;30.60;41.10;;;;;;4898387;28;45544;-63
2022/07/24 11:22:38;;;;;;;5.57;5.17;;;30.60;41.20;;;;;;4879570;28;45355;-62
2022/07/24 11:25:08;;;;;;;5.47;5.07;;;30.60;41.20;;;;;;4896168;28;44858;-69
2022/07/24 11:27:43;;;;;;;5.82;5.32;;;30.60;41.10;;;;;;4897324;28;45261;-65
2022/07/24 11:30:10;;;;;;;6.57;5.88;;;30.60;41.10;;;;;;4896669;28;46295;-63
2022/07/24 11:32:37;;;;;;;5.97;5.47;;;30.60;41.10;;;;;;4883868;29;45580;-61
2022/07/24 11:35:04;;;;;;;6.18;5.68;;;30.70;41.10;;;;;;4882489;28;45521;-66
2022/07/24 11:37:30;;;;;;;6.05;5.45;;;30.70;41.10;;;;;;4879769;28;46068;-62
2022/07/24 11:39:55;;;;;;;5.70;5.20;;;30.70;41.00;;;;;;4883371;29;45524;-66
2022/07/24 11:42:21;;;;;;;6.20;5.70;;;30.70;41.00;;;;;;4898742;28;45296;-62
2022/07/24 11:44:48;;;;;;;6.10;5.50;;;30.70;41.00;;;;;;4899351;28;45193;-63
2022/07/24 11:47:21;;;;;;;5.50;5.00;;;30.70;41.00;;;;;;4879126;28;45501;-64
2022/07/24 11:49:52;;;;;;;6.28;5.55;;;30.70;40.90;;;;;;4896133;28;45690;-61
2022/07/24 11:52:25;;;;;;;6.40;5.80;;;30.70;40.90;;;;;;4897266;28;44660;-63
2022/07/24 11:54:52;;;;;;;5.72;5.20;;;30.70;40.90;;;;;;4898152;29;44935;-63
2022/07/24 11:57:26;;;;;;;6.68;5.45;;;30.70;40.90;;;;;;4900309;29;46192;-65
2022/07/24 11:59:52;;;;;;;5.90;5.40;;;30.70;40.90;;;;;;4883747;28;45402;-63
2022/07/24 12:02:18;;;;;;;5.63;5.15;;;30.80;40.90;;;;;;4883545;29;45547;-66
2022/07/24 12:04:44;;;;;;;5.50;5.10;;;30.80;40.90;;;;;;4885420;29;45265;-62
2022/07/24 12:07:12;;;;;;;5.80;5.30;;;30.80;40.90;;;;;;4884494;29;48753;-65
2022/07/24 12:09:51;;;;;;;5.38;4.97;;;30.80;40.80;;;;;;4900686;28;46807;-66
2022/07/24 12:12:29;;;;;;;5.80;5.30;;;30.80;40.80;;;;;;4882900;28;45252;-71
2022/07/24 12:15:12;;;;;;;5.50;5.00;;;30.80;40.80;;;;;;4898374;29;45682;-65
2022/07/24 12:18:00;;;;;;;5.65;5.15;;;30.90;40.80;;;;;;4900164;28;46617;-68
2022/07/24 12:20:39;;;;;;;5.70;5.20;;;30.90;40.70;;;;;;4900482;28;45197;-62
2022/07/24 12:23:06;;;;;;;6.10;5.60;;;30.90;40.70;;;;;;4896847;28;45718;-65
2022/07/24 12:25:32;;;;;;;5.32;4.93;;;30.90;40.80;;;;;;4883648;29;45621;-60
2022/07/24 12:28:07;;;;;;;5.50;5.00;;;30.90;40.80;;;;;;4881313;28;45285;-63
2022/07/24 12:30:35;;;;;;;6.25;5.68;;;30.90;40.70;;;;;;4900696;28;45320;-63
2022/07/24 12:33:02;;;;;;;6.32;5.82;;;30.90;40.70;;;;;;4904178;28;44739;-62
2022/07/24 12:35:48;;;;;;;6.35;5.85;;;30.90;40.70;;;;;;4884559;29;45334;-65
2022/07/24 12:38:13;;;;;;;5.45;5.05;;;31.00;40.70;;;;;;4901374;28;45955;-66
2022/07/24 12:40:39;;;;;;;5.32;4.82;;;31.00;40.80;;;;;;4866974;28;44791;-67
2022/07/24 12:43:09;;;;;;;5.55;5.05;;;31.00;40.70;;;;;;4899514;28;45284;-63
2022/07/24 12:45:35;;;;;;;5.03;4.63;;;31.00;40.70;;;;;;4884744;29;45335;-63
2022/07/24 12:48:10;;;;;;;6.40;5.80;;;31.00;40.70;;;;;;4899517;28;45510;-63
2022/07/24 12:50:36;;;;;;;5.95;5.45;;;31.00;40.60;;;;;;4903914;28;45297;-64
2022/07/24 12:53:05;;;;;;;6.05;5.53;;;31.00;40.70;;;;;;4899454;28;45281;-65
2022/07/24 12:55:31;;;;;;;5.93;5.43;;;31.00;41.20;;;;;;4900949;29;45159;-69
2022/07/24 12:58:00;;;;;;;5.88;5.38;;;31.00;40.60;;;;;;4900030;28;45982;-67
2022/07/24 13:00:26;;;;;;;5.95;5.45;;;31.00;40.60;;;;;;4862857;28;45261;-64
2022/07/24 13:02:52;;;;;;;5.25;4.78;;;31.00;40.60;;;;;;4881805;29;45576;-58
2022/07/24 13:05:36;;;;;;;5.90;5.40;;;31.00;40.60;;;;;;4875634;29;45197;-67
2022/07/24 13:08:02;;;;;;;5.97;5.47;;;31.10;40.50;;;;;;4877368;29;46367;-69
2022/07/24 13:10:27;;;;;;;5.93;5.43;;;31.10;40.60;;;;;;4877052;28;45650;-67
2022/07/24 13:12:53;;;;;;;6.22;5.63;;;31.10;40.60;;;;;;4898785;28;45045;-64
2022/07/24 13:15:18;;;;;;;5.90;5.40;;;31.10;40.60;;;;;;4896685;28;46020;-67
2022/07/24 13:17:44;;;;;;;6.10;5.65;;;31.10;40.60;;;;;;4881475;28;46048;-61
2022/07/24 13:20:10;;;;;;;6.22;5.70;;;31.10;40.50;;;;;;4882113;28;45292;-67
2022/07/24 13:22:36;;;;;;;5.75;5.25;;;31.10;40.50;;;;;;4878802;28;45430;-67
2022/07/24 13:25:01;;;;;;;5.53;5.13;;;31.10;40.50;;;;;;4884505;29;45488;-66
2022/07/24 13:27:27;;;;;;;6.03;5.53;;;31.20;40.60;;;;;;4871427;28;45936;-66
2022/07/24 13:29:53;;;;;;;6.03;5.53;;;31.10;40.50;;;;;;4899263;28;45313;-65
2022/07/24 13:32:18;;;;;;;5.47;4.95;;;31.10;40.50;;;;;;4899361;28;45481;-67
2022/07/24 13:34:44;;;;;;;6.10;5.60;;;31.20;40.50;;;;;;4886584;29;44821;-64
2022/07/24 13:37:09;;;;;;;5.95;5.45;;;31.20;40.50;;;;;;4899358;28;45848;-69
2022/07/24 13:39:37;;;;;;;6.15;5.55;;;31.20;40.50;;;;;;4899711;28;44789;-63
2022/07/24 13:42:02;;;;;;;6.25;5.65;;;31.20;40.80;;;;;;4884003;29;45396;-67
2022/07/24 13:44:28;;;;;;;6.05;5.55;;;31.20;40.50;;;;;;4898781;28;45274;-64
2022/07/24 13:46:54;;;;;;;6.65;5.13;;;31.20;40.50;;;;;;4883215;29;45449;-64
2022/07/24 13:49:20;;;;;;;5.93;5.43;;;31.20;40.40;;;;;;4901176;29;45281;-65
2022/07/24 13:51:47;;;;;;;5.70;5.20;;;31.20;40.40;;;;;;4882352;29;45385;-63
2022/07/24 13:54:12;;;;;;;6.05;5.55;;;31.20;40.40;;;;;;4899741;28;44795;-65
2022/07/24 13:56:38;;;;;;;6.40;5.82;;;31.20;40.40;;;;;;4898807;28;46860;-63
2022/07/24 13:59:04;;;;;;;5.55;5.15;;;31.20;40.30;;;;;;4884158;29;45260;-62
2022/07/24 14:01:29;;;;;;;6.75;6.15;;;31.20;40.30;;;;;;4899684;29;44815;-64
2022/07/24 14:03:55;;;;;;;6.43;5.93;;;31.20;40.40;;;;;;4898495;28;45700;-63
2022/07/24 14:06:21;;;;;;;5.70;5.25;;;31.20;40.30;;;;;;4901709;28;46466;-63
2022/07/24 14:08:46;;;;;;;6.15;5.60;;;31.20;40.30;;;;;;4898874;28;45973;-62
2022/07/24 14:11:12;;;;;;;5.95;5.47;;;31.20;40.30;;;;;;4901607;28;45561;-67
2022/07/24 14:13:37;;;;;;;6.05;5.53;;;31.30;40.30;;;;;;4898813;28;45346;-66
2022/07/24 14:16:03;;;;;;;6.05;5.45;;;31.30;40.30;;;;;;4896372;28;47164;-64
2022/07/24 14:18:29;;;;;;;5.85;5.35;;;31.30;40.30;;;;;;4900244;28;45443;-63
2022/07/24 14:20:55;;;;;;;5.97;5.47;;;31.30;40.20;;;;;;4885889;29;45222;-63
2022/07/24 14:23:20;;;;;;;6.45;5.85;;;31.30;40.30;;;;;;4882521;29;45178;-66
2022/07/24 14:25:46;;;;;;;6.03;5.53;;;31.30;40.30;;;;;;4899313;28;45869;-63
2022/07/24 14:28:12;;;;;;;5.75;5.22;;;31.30;40.20;;;;;;4881828;29;45613;-64
2022/07/24 14:30:38;;;;;;;6.40;5.90;;;31.30;40.20;;;;;;4878682;29;45632;-67
2022/07/24 14:33:03;;;;;;;6.10;5.60;;;31.30;40.20;;;;;;4899586;28;45197;-67
2022/07/24 14:35:30;;;;;;;5.95;5.45;;;31.30;40.30;;;;;;4902301;28;45573;-62
2022/07/24 14:37:56;;;;;;;5.80;5.38;;;31.30;40.20;;;;;;4883795;29;44918;-66
2022/07/24 14:40:22;;;;;;;6.20;5.68;;;31.30;40.10;;;;;;4900418;28;46016;-70
2022/07/24 14:42:47;;;;;;;6.10;5.60;;;31.30;40.20;;;;;;4897823;28;45490;-63
2022/07/24 14:45:13;;;;;;;5.90;5.43;;;31.30;40.20;;;;;;4880740;29;47073;-63
2022/07/24 14:47:39;;;;;;;6.35;5.75;;;31.30;40.20;;;;;;4881744;28;45174;-67
2022/07/24 14:50:08;;;;;;;6.32;5.78;;;31.30;40.20;;;;;;4881317;29;45242;-67
2022/07/24 14:52:34;;;;;;;6.05;5.55;;;31.40;40.20;;;;;;4874529;28;45616;-64
2022/07/24 14:55:00;;;;;;;6.38;5.80;;;31.40;40.20;;;;;;4890511;28;45853;-66
2022/07/24 14:57:25;;;;;;;6.57;5.97;;;31.30;40.20;;;;;;4894376;28;45325;-71
2022/07/24 14:59:51;;;;;;;6.28;5.78;;;31.40;40.20;;;;;;4879560;28;45144;-66
2022/07/24 15:02:17;;;;;;;5.82;5.32;;;31.40;40.20;;;;;;4893897;28;45534;-67
2022/07/24 15:04:42;;;;;;;6.10;5.60;;;31.40;40.20;;;;;;4890983;28;45844;-65
2022/07/24 15:07:08;;;;;;;6.00;5.50;;;31.40;40.80;;;;;;4896860;28;45434;-66
2022/07/24 15:09:34;;;;;;;6.13;5.57;;;31.40;40.20;;;;;;4034749;28;10000344;-67
2022/07/24 15:11:59;;;;;;;6.13;5.63;;;31.40;40.20;;;;;;4910218;28;45342;-71
2022/07/24 15:14:25;;;;;;;5.38;4.93;;;31.40;40.30;;;;;;4912069;28;45472;-65
2022/07/24 15:16:50;;;;;;;6.20;5.70;;;31.40;40.20;;;;;;4913480;28;45148;-67
2022/07/24 15:19:16;;;;;;;5.68;5.28;;;31.30;40.20;;;;;;4913312;28;45872;-65
2022/07/24 15:21:42;;;;;;;6.32;5.80;;;31.40;40.90;;;;;;4899825;28;45035;-66
2022/07/24 15:24:08;;;;;;;6.55;5.78;;;31.40;40.30;;;;;;4912076;28;44887;-71
2022/07/24 15:26:34;;;;;;;6.18;5.50;;;31.40;40.30;;;;;;4877975;28;45576;-65
2022/07/24 15:28:59;;;;;;;6.70;6.05;;;31.40;40.20;;;;;;4906441;28;45072;-66
2022/07/24 15:31:25;;;;;;;5.30;4.85;;;31.40;40.20;;;;;;4911730;28;45364;-66
2022/07/24 15:33:50;;;;;;;5.78;5.28;;;31.40;40.30;;;;;;4906121;28;45327;-71
2022/07/24 15:36:16;;;;;;;5.72;5.22;;;31.40;40.30;;;;;;4892831;28;45361;-65
2022/07/24 15:38:42;;;;;;;6.10;5.63;;;31.40;40.20;;;;;;4894555;28;45620;-69
2022/07/24 15:41:08;;;;;;;6.03;5.53;;;31.40;40.20;;;;;;4910429;28;45137;-71
2022/07/24 15:43:33;;;;;;;5.90;5.45;;;31.40;40.20;;;;;;4890679;28;45068;-72
2022/07/24 15:45:59;;;;;;;6.15;5.65;;;31.40;40.30;;;;;;4909275;28;44850;-68
2022/07/24 15:48:24;;;;;;;6.55;6.05;;;31.40;40.30;;;;;;4911334;28;47039;-66